createdAt,value
2018-07-06T00:01:33.006Z,99719.00
2018-07-06T00:06:54.362Z,99717.00
2018-07-06T00:12:16.558Z,99731.00
2018-07-06T00:17:38.097Z,99732.00
2018-07-06T00:22:59.666Z,99745.00
2018-07-06T00:28:15.018Z,99745.00
2018-07-06T00:33:36.841Z,99743.00
2018-07-06T00:38:58.653Z,99747.00
2018-07-06T00:44:20.662Z,99753.00
2018-07-06T00:49:42.132Z,99751.00
2018-07-06T00:55:04.087Z,99763.00
2018-07-06T01:00:26.519Z,99766.00
2018-07-06T01:05:48.347Z,99772.00
2018-07-06T01:11:10.933Z,99774.00
2018-07-06T01:16:32.688Z,99776.00
2018-07-06T01:21:54.943Z,99779.00
2018-07-06T01:27:16.294Z,99783.00
2018-07-06T01:32:37.980Z,99778.00
2018-07-06T01:37:59.966Z,99786.00
2018-07-06T01:43:21.675Z,99801.00
2018-07-06T01:48:43.554Z,99794.00
2018-07-06T01:54:05.122Z,99794.00
2018-07-06T01:59:26.610Z,99803.00
2018-07-06T02:04:48.114Z,99806.00
2018-07-06T02:10:09.627Z,99811.00
2018-07-06T02:15:31.144Z,99811.00
2018-07-06T02:20:46.690Z,99812.00
2018-07-06T02:26:08.161Z,99821.00
2018-07-06T02:31:29.607Z,99821.00
2018-07-06T02:36:44.870Z,99825.00
2018-07-06T02:42:06.290Z,99825.00
2018-07-06T02:47:27.723Z,99834.00
2018-07-06T02:52:49.130Z,99838.00
2018-07-06T02:58:10.575Z,99846.00
2018-07-06T03:03:32.025Z,99851.00
2018-07-06T03:08:53.529Z,99858.00
2018-07-06T03:14:15.082Z,99857.00
2018-07-06T03:19:36.523Z,99859.00
2018-07-06T03:24:57.799Z,99863.00
2018-07-06T03:30:19.214Z,99872.00
2018-07-06T03:35:40.455Z,99876.00
2018-07-06T03:41:01.915Z,99889.00
2018-07-06T03:46:23.423Z,99903.00
2018-07-06T03:51:45.205Z,99899.00
2018-07-06T03:57:06.642Z,99911.00
2018-07-06T04:02:21.995Z,99911.00
2018-07-06T04:07:43.468Z,99918.00
2018-07-06T04:13:05.023Z,99923.00
2018-07-06T04:18:26.343Z,99927.00
2018-07-06T04:23:47.947Z,99929.00
2018-07-06T04:29:03.453Z,99932.00
2018-07-06T04:34:25.084Z,99940.00
2018-07-06T04:39:40.389Z,99946.00
2018-07-06T04:45:01.951Z,99956.00
2018-07-06T04:50:23.315Z,99958.00
2018-07-06T04:55:44.478Z,99959.00
2018-07-06T05:01:06.022Z,99958.00
2018-07-06T05:06:27.386Z,99961.00
2018-07-06T05:11:42.849Z,99971.00
2018-07-06T05:17:04.462Z,99965.00
2018-07-06T05:22:26.008Z,99969.00
2018-07-06T05:27:47.417Z,99979.00
2018-07-06T05:33:08.926Z,99987.00
2018-07-06T05:38:24.526Z,99994.00
2018-07-06T05:43:46.018Z,99997.00
2018-07-06T05:49:07.543Z,100000.00
2018-07-06T05:54:28.810Z,100003.00
2018-07-06T05:59:50.155Z,100015.00
2018-07-06T06:05:11.609Z,100016.00
2018-07-06T06:10:16.560Z,100017.00
2018-07-06T06:15:21.267Z,100017.00
2018-07-06T06:20:25.845Z,100031.00
2018-07-06T06:25:30.396Z,100025.00
2018-07-06T06:30:35.049Z,100037.00
2018-07-06T06:35:39.789Z,100041.00
2018-07-06T06:40:44.655Z,100042.00
2018-07-06T06:45:49.255Z,100041.00
2018-07-06T06:50:54.139Z,100037.00
2018-07-06T06:55:59.143Z,100042.00
2018-07-06T07:01:03.589Z,100044.00
2018-07-06T07:06:08.270Z,100046.00
2018-07-06T07:11:13.337Z,100048.00
2018-07-06T07:16:17.903Z,100054.00
2018-07-06T07:21:22.421Z,100056.00
2018-07-06T07:26:26.951Z,100059.00
2018-07-06T07:31:31.596Z,100057.00
2018-07-06T07:36:36.295Z,100059.00
2018-07-06T07:41:40.976Z,100065.00
2018-07-06T07:46:45.587Z,100061.00
2018-07-06T07:52:12.349Z,100065.00
2018-07-06T07:57:16.968Z,100068.00
2018-07-06T08:02:21.975Z,100068.00
2018-07-06T08:07:26.558Z,100074.00
2018-07-06T08:12:31.142Z,100076.00
2018-07-06T08:17:35.995Z,100079.00
2018-07-06T08:22:40.775Z,100085.00
2018-07-06T08:27:45.453Z,100094.00
2018-07-06T08:32:50.071Z,100095.00
2018-07-06T08:38:03.382Z,100097.00
2018-07-06T08:43:08.024Z,100103.00
2018-07-06T08:48:12.754Z,100107.00
2018-07-06T08:53:17.918Z,100106.00
2018-07-06T08:58:22.627Z,100109.00
2018-07-06T09:03:27.278Z,100111.00
2018-07-06T09:08:31.888Z,100111.00
2018-07-06T09:13:36.466Z,100116.00
2018-07-06T09:18:41.017Z,100117.00
2018-07-06T09:23:45.777Z,100121.00
2018-07-06T09:28:50.296Z,100123.00
2018-07-06T09:33:54.831Z,100118.00
2018-07-06T09:38:59.488Z,100115.00
2018-07-06T09:44:04.157Z,100122.00
2018-07-06T09:49:09.899Z,100126.00
2018-07-06T09:54:14.535Z,100125.00
2018-07-06T09:59:19.110Z,100132.00
2018-07-06T10:04:23.870Z,100128.00
2018-07-06T10:09:28.767Z,100128.00
2018-07-06T10:14:33.337Z,100127.00
2018-07-06T10:19:38.192Z,100125.00
2018-07-06T10:24:42.834Z,100132.00
2018-07-06T10:30:00.523Z,100127.00
2018-07-06T10:35:05.233Z,100134.00
2018-07-06T10:40:10.375Z,100127.00
2018-07-06T10:45:15.163Z,100136.00
2018-07-06T10:50:19.891Z,100139.00
2018-07-06T10:55:24.522Z,100137.00
2018-07-06T11:00:29.175Z,100133.00
2018-07-06T11:05:33.718Z,100133.00
2018-07-06T11:10:38.325Z,100133.00
2018-07-06T11:15:43.143Z,100129.00
2018-07-06T11:20:47.746Z,100130.00
2018-07-06T11:25:52.412Z,100134.00
2018-07-06T11:30:57.415Z,100133.00
2018-07-06T11:36:02.288Z,100137.00
2018-07-06T11:41:06.915Z,100134.00
2018-07-06T11:46:11.727Z,100141.00
2018-07-06T11:51:16.678Z,100137.00
2018-07-06T11:56:21.195Z,100132.00
2018-07-06T12:01:25.882Z,100136.00
2018-07-06T12:06:30.458Z,100138.00
2018-07-06T12:11:35.734Z,100137.00
2018-07-06T12:16:40.463Z,100145.00
2018-07-06T12:21:45.137Z,100143.00
2018-07-06T12:26:49.563Z,100139.00
2018-07-06T12:31:54.578Z,100141.00
2018-07-06T12:36:59.787Z,100136.00
2018-07-06T12:42:04.357Z,100132.00
2018-07-06T12:47:09.168Z,100123.00
2018-07-06T12:52:13.962Z,100129.00
2018-07-06T12:57:18.570Z,100126.00
2018-07-06T13:02:22.993Z,100120.00
2018-07-06T13:07:27.447Z,100120.00
2018-07-06T13:12:32.185Z,100118.00
2018-07-06T13:17:36.910Z,100114.00
2018-07-06T13:22:41.523Z,100112.00
2018-07-06T13:27:46.242Z,100107.00
2018-07-06T13:32:51.006Z,100114.00
2018-07-06T13:37:55.934Z,100113.00
2018-07-06T13:43:00.526Z,100113.00
2018-07-06T13:48:05.273Z,100109.00
2018-07-06T13:53:10.513Z,100100.00
2018-07-06T13:58:15.375Z,100100.00
2018-07-06T14:03:19.937Z,100102.00
2018-07-06T14:08:24.663Z,100103.00
2018-07-06T14:13:29.333Z,100100.00
2018-07-06T14:18:34.067Z,100101.00
2018-07-06T14:23:38.879Z,100099.00
2018-07-06T14:28:43.652Z,100100.00
2018-07-06T14:33:48.347Z,100103.00
2018-07-06T14:38:53.086Z,100101.00
2018-07-06T14:43:58.186Z,100097.00
2018-07-06T14:49:02.986Z,100091.00
2018-07-06T14:54:07.635Z,100098.00
2018-07-06T14:59:12.294Z,100097.00
2018-07-06T15:04:16.887Z,100097.00
2018-07-06T15:09:21.666Z,100099.00
2018-07-06T15:14:26.148Z,100098.00
2018-07-06T15:19:30.955Z,100102.00
2018-07-06T16:20:53.799Z,100193.33
2018-07-06T16:21:08.170Z,100193.33
2018-07-06T16:26:12.026Z,100195.87
2018-07-06T16:31:15.601Z,100195.37
2018-07-06T16:42:26.254Z,100195.83
2018-07-06T16:47:29.878Z,100200.83
2018-07-06T16:52:33.541Z,100195.27
2018-07-06T16:56:37.435Z,100198.56
2018-07-06T17:00:41.118Z,100200.13
2018-07-06T17:04:44.729Z,100199.62
2018-07-06T17:08:48.570Z,100202.84
2018-07-06T17:12:52.228Z,100200.21
2018-07-06T17:16:55.989Z,100216.45
2018-07-06T17:20:59.694Z,100214.53
